createdAt,value
2022-09-28T00:03:19.967Z,98682.91
2022-09-28T00:08:22.481Z,98688.75
2022-09-28T00:13:25.563Z,98684.78
2022-09-28T00:18:29.389Z,98680.44
2022-09-28T00:23:31.825Z,98683.38
2022-09-28T00:28:34.264Z,98677.19
2022-09-28T00:33:38.047Z,98685.56
2022-09-28T00:38:40.677Z,98675.22
2022-09-28T00:43:43.232Z,98667.78
2022-09-28T00:48:53.866Z,98671.53
2022-09-28T00:53:57.482Z,98663.38
2022-09-28T00:59:00.961Z,98657.66
2022-09-28T01:04:05.643Z,98650.53
2022-09-28T01:09:11.365Z,98647.38
2022-09-28T01:14:16.526Z,98632.44
2022-09-28T01:19:38.610Z,98635.50
2022-09-28T01:24:44.930Z,98623.56
2022-09-28T01:29:56.211Z,98610.63
2022-09-28T01:35:03.618Z,98609.69
2022-09-28T01:40:08.605Z,98609.50
2022-09-28T01:45:18.287Z,98602.84
2022-09-28T01:50:25.037Z,98583.38
2022-09-28T01:55:32.435Z,98570.19
2022-09-28T02:00:41.537Z,98573.34
2022-09-28T02:05:50.495Z,98561.75
2022-09-28T02:10:58.789Z,98558.44
2022-09-28T02:16:07.375Z,98555.72
2022-09-28T02:21:14.116Z,98560.13
2022-09-28T02:26:22.154Z,98568.34
2022-09-28T02:31:27.661Z,98558.50
2022-09-28T02:36:30.619Z,98557.75
2022-09-28T02:41:47.152Z,98555.59
2022-09-28T02:46:58.673Z,98563.78
2022-09-28T02:52:18.613Z,98558.06
2022-09-28T02:57:32.966Z,98549.41
2022-09-28T03:02:45.226Z,98531.22
2022-09-28T03:07:56.952Z,98539.06
2022-09-28T03:13:00.330Z,98525.22
2022-09-28T03:18:04.874Z,98527.97
2022-09-28T03:23:23.706Z,98518.72
2022-09-28T03:28:28.166Z,98516.66
2022-09-28T03:33:32.188Z,98508.00
2022-09-28T03:38:34.859Z,98504.81
2022-09-28T03:43:37.311Z,98497.56
2022-09-28T03:48:41.828Z,98487.72
2022-09-28T03:53:44.245Z,98483.00
2022-09-28T03:58:46.845Z,98474.13
2022-09-28T04:03:55.057Z,98463.94
2022-09-28T04:08:57.745Z,98464.75
2022-09-28T04:14:00.195Z,98456.13
2022-09-28T04:19:04.395Z,98446.06
2022-09-28T04:24:07.001Z,98449.59
2022-09-28T04:29:19.877Z,98446.06
2022-09-28T04:34:24.373Z,98430.22
2022-09-28T04:39:26.810Z,98422.88
2022-09-28T04:44:29.451Z,98419.03
2022-09-28T04:49:35.332Z,98413.25
2022-09-28T04:54:37.776Z,98402.53
2022-09-28T04:59:40.317Z,98403.47
2022-09-28T05:04:44.178Z,98405.97
2022-09-28T05:09:46.603Z,98396.03
2022-09-28T05:14:49.083Z,98394.25
2022-09-28T05:19:52.868Z,98386.44
2022-09-28T05:24:55.811Z,98385.78
2022-09-28T05:29:58.343Z,98382.09
2022-09-28T05:35:02.145Z,98373.78
2022-09-28T05:40:05.395Z,98376.97
2022-09-28T05:45:09.081Z,98376.16
2022-09-28T05:50:15.861Z,98369.69
2022-09-28T05:55:18.282Z,98372.78
2022-09-28T06:00:20.978Z,98369.78
2022-09-28T06:05:25.434Z,98372.38
2022-09-28T06:10:29.477Z,98363.28
2022-09-28T06:15:33.776Z,98365.53
2022-09-28T06:20:39.748Z,98364.44
2022-09-28T06:25:42.686Z,98365.97
2022-09-28T06:30:45.815Z,98373.91
2022-09-28T06:35:49.623Z,98363.47
2022-09-28T06:40:52.169Z,98362.56
2022-09-28T06:45:55.313Z,98371.22
2022-09-28T06:50:59.133Z,98372.47
2022-09-28T06:56:02.498Z,98365.91
2022-09-28T07:01:05.736Z,98363.50
2022-09-28T07:06:13.124Z,98372.63
2022-09-28T07:11:15.520Z,98367.84
2022-09-28T07:16:19.760Z,98365.41
2022-09-28T07:21:30.209Z,98356.28
2022-09-28T07:26:34.011Z,98362.00
2022-09-28T07:31:36.451Z,98362.41
2022-09-28T07:36:40.287Z,98363.72
2022-09-28T07:41:43.891Z,98357.69
2022-09-28T07:46:46.577Z,98365.28
2022-09-28T07:51:50.357Z,98367.97
2022-09-28T07:56:52.993Z,98363.41
2022-09-28T08:01:55.430Z,98361.97
2022-09-28T08:06:59.719Z,98358.03
2022-09-28T08:12:04.028Z,98361.19
2022-09-28T08:17:08.213Z,98361.09
2022-09-28T08:22:11.987Z,98361.88
2022-09-28T08:27:15.241Z,98375.47
2022-09-28T08:32:19.607Z,98373.78
2022-09-28T08:37:26.295Z,98380.03
2022-09-28T08:42:36.349Z,98383.91
2022-09-28T08:48:07.886Z,98389.31
2022-09-28T08:53:26.882Z,98389.00
2022-09-28T08:58:34.389Z,98394.47
2022-09-28T09:03:39.743Z,98403.72
2022-09-28T09:08:55.536Z,98405.84
2022-09-28T09:14:31.815Z,98403.25
2022-09-28T09:19:37.220Z,98403.78
2022-09-28T09:24:49.496Z,98415.31
2022-09-28T09:30:04.734Z,98412.13
2022-09-28T09:35:26.502Z,98412.03
2022-09-28T09:40:58.373Z,98424.91
2022-09-28T09:46:14.997Z,98413.06
2022-09-28T09:51:25.193Z,98418.63
2022-09-28T09:56:35.575Z,98422.66
2022-09-28T10:01:41.124Z,98432.72
2022-09-28T10:06:44.745Z,98427.56
2022-09-28T10:11:50.401Z,98446.63
2022-09-28T10:16:55.346Z,98435.28
2022-09-28T10:21:58.568Z,98448.25
2022-09-28T10:27:06.825Z,98446.44
2022-09-28T10:32:20.374Z,98448.91
2022-09-28T10:37:24.305Z,98449.69
2022-09-28T10:42:31.324Z,98450.31
2022-09-28T10:47:35.950Z,98463.44
2022-09-28T10:52:41.560Z,98464.59
2022-09-28T10:57:45.386Z,98468.47
2022-09-28T11:02:47.958Z,98468.53
2022-09-28T11:07:52.336Z,98471.50
2022-09-28T11:12:57.433Z,98472.63
2022-09-28T11:18:19.945Z,98476.13
2022-09-28T11:23:28.198Z,98477.47
2022-09-28T11:28:34.775Z,98470.63
2022-09-28T11:33:39.881Z,98485.50
2022-09-28T11:38:53.644Z,98493.69
2022-09-28T11:44:22.481Z,98494.88
2022-09-28T11:49:32.559Z,98513.22
2022-09-28T11:54:41.890Z,98515.28
2022-09-28T11:59:56.390Z,98515.97
2022-09-28T12:05:08.569Z,98507.66
2022-09-28T12:10:18.982Z,98503.84
2022-09-28T12:15:27.176Z,98511.41
2022-09-28T12:20:33.520Z,98503.34
2022-09-28T12:25:42.724Z,98516.72
2022-09-28T12:30:48.838Z,98521.47
2022-09-28T12:36:07.027Z,98518.63
2022-09-28T12:41:22.662Z,98538.00
2022-09-28T12:46:38.127Z,98544.03
2022-09-28T12:51:49.581Z,98550.34
2022-09-28T12:57:04.657Z,98542.41
2022-09-28T13:02:42.989Z,98554.03
2022-09-28T13:07:54.054Z,98551.50
2022-09-28T13:13:14.710Z,98554.34
2022-09-28T13:18:27.251Z,98556.69
2022-09-28T13:23:35.128Z,98558.22
2022-09-28T13:28:39.772Z,98567.63
2022-09-28T13:33:46.657Z,98562.13
2022-09-28T13:38:52.790Z,98570.69
2022-09-28T13:44:28.413Z,98574.53
2022-09-28T13:49:45.521Z,98581.81
2022-09-28T13:54:57.070Z,98581.22
2022-09-28T14:00:08.583Z,98586.22
2022-09-28T14:05:41.815Z,98597.47
2022-09-28T14:10:52.277Z,98595.53
2022-09-28T14:15:54.828Z,98594.94
2022-09-28T14:21:24.177Z,98588.25
2022-09-28T14:26:57.879Z,98588.06
2022-09-28T14:32:06.566Z,98595.06
2022-09-28T14:37:39.411Z,98593.47
2022-09-28T14:43:24.877Z,98605.34
2022-09-28T14:48:45.893Z,98619.78
2022-09-28T14:53:51.074Z,98631.13
2022-09-28T14:58:57.778Z,98630.66
2022-09-28T15:04:05.586Z,98620.47
2022-09-28T15:09:29.101Z,98628.47
2022-09-28T15:14:34.387Z,98631.66
2022-09-28T15:19:51.881Z,98631.88
2022-09-28T15:25:02.024Z,98633.56
2022-09-28T15:30:20.095Z,98632.50
2022-09-28T15:35:27.526Z,98639.44
2022-09-28T15:40:34.343Z,98646.41
2022-09-28T15:45:40.009Z,98646.53
2022-09-28T15:50:57.994Z,98656.28
2022-09-28T15:56:09.706Z,98668.03
2022-09-28T16:01:26.749Z,98666.69
2022-09-28T16:06:30.869Z,98670.50
2022-09-28T16:11:39.914Z,98663.88
2022-09-28T16:16:47.315Z,98664.53
2022-09-28T16:21:53.483Z,98680.06
2022-09-28T16:26:58.999Z,98675.72
2022-09-28T16:32:37.651Z,98684.00
2022-09-28T16:37:42.713Z,98689.88
2022-09-28T16:42:49.137Z,98700.16
2022-09-28T16:47:53.092Z,98706.00
2022-09-28T16:53:21.158Z,98716.84
2022-09-28T16:58:25.156Z,98719.06
2022-09-28T17:03:29.245Z,98724.19
2022-09-28T17:08:35.464Z,98718.81
2022-09-28T17:13:38.308Z,98722.47
2022-09-28T17:18:41.517Z,98723.69
2022-09-28T17:23:46.596Z,98735.72
2022-09-28T17:28:49.051Z,98740.03
2022-09-28T17:33:52.111Z,98733.81
2022-09-28T17:38:57.171Z,98749.28
2022-09-28T17:44:03.037Z,98757.31
2022-09-28T17:49:07.458Z,98758.19
2022-09-28T17:54:12.951Z,98761.88
2022-09-28T17:59:18.485Z,98773.41
2022-09-28T18:04:47.184Z,98773.28
2022-09-28T18:09:45.074Z,98785.16
2022-09-28T18:14:48.047Z,98787.13
2022-09-28T18:19:51.185Z,98789.94
2022-09-28T18:24:55.439Z,98785.91
2022-09-28T18:29:58.261Z,98789.22
2022-09-28T18:35:00.815Z,98800.28
2022-09-28T18:40:05.961Z,98795.97
2022-09-28T18:45:11.372Z,98808.63
2022-09-28T18:50:15.378Z,98807.31
2022-09-28T18:55:20.026Z,98826.13
2022-09-28T19:00:22.788Z,98821.47
2022-09-28T19:05:28.631Z,98827.50
2022-09-28T19:10:32.611Z,98833.13
2022-09-28T19:15:35.323Z,98829.47
2022-09-28T19:20:38.009Z,98827.59
2022-09-28T19:25:42.173Z,98832.13
2022-09-28T19:30:44.987Z,98821.66
2022-09-28T19:35:55.996Z,98828.28
2022-09-28T19:41:00.354Z,98832.94
2022-09-28T19:46:05.394Z,98841.47
2022-09-28T19:51:08.747Z,98848.44
2022-09-28T19:56:12.817Z,98855.28
2022-09-28T20:01:15.590Z,98851.66
2022-09-28T20:06:18.296Z,98854.78
2022-09-28T20:11:22.590Z,98850.47
2022-09-28T20:16:25.395Z,98863.72
2022-09-28T20:21:28.420Z,98863.16
2022-09-28T20:26:37.231Z,98870.63
2022-09-28T20:31:39.802Z,98863.47
2022-09-28T20:36:43.137Z,98868.41
2022-09-28T20:41:49.234Z,98870.69
2022-09-28T20:46:52.353Z,98873.09
2022-09-28T20:51:55.207Z,98882.81
2022-09-28T20:56:59.115Z,98887.00
2022-09-28T21:02:01.754Z,98891.75
2022-09-28T21:07:04.445Z,98895.72
2022-09-28T21:12:09.223Z,98893.31
2022-09-28T21:17:11.758Z,98896.66
2022-09-28T21:22:14.482Z,98898.50
2022-09-28T21:27:20.565Z,98903.09
2022-09-28T21:32:24.210Z,98915.25
2022-09-28T21:37:26.736Z,98929.47
2022-09-28T21:42:30.949Z,98927.88
2022-09-28T21:47:33.776Z,98928.53
2022-09-28T21:52:36.320Z,98935.16
2022-09-28T21:57:40.363Z,98928.25
2022-09-28T22:02:43.226Z,98928.41
2022-09-28T22:07:45.856Z,98938.91
2022-09-28T22:12:50.072Z,98939.78
2022-09-28T22:17:52.796Z,98943.16
2022-09-28T22:22:55.377Z,98944.59
2022-09-28T22:27:59.350Z,98947.56
2022-09-28T22:33:02.592Z,98948.25
2022-09-28T22:38:05.420Z,98941.53
2022-09-28T22:43:09.329Z,98943.56
2022-09-28T22:48:12.193Z,98944.25
2022-09-28T22:53:15.028Z,98949.44
2022-09-28T22:58:18.973Z,98942.13
2022-09-28T23:03:21.773Z,98945.50
2022-09-28T23:08:25.289Z,98943.81
2022-09-28T23:13:30.979Z,98945.34
2022-09-28T23:18:35.457Z,98946.78
2022-09-28T23:23:37.980Z,98947.28
2022-09-28T23:28:42.338Z,98950.47
2022-09-28T23:33:45.199Z,98939.31
2022-09-28T23:38:47.802Z,98952.44
2022-09-28T23:43:51.945Z,98955.88
2022-09-28T23:48:54.859Z,98955.34
2022-09-28T23:53:57.386Z,98948.66
2022-09-28T23:59:01.442Z,98933.59
